Terminal Aerodrome Forecast
Issued by NWS

Home | Current Version | Previous Version | Graphics & Text | Print | Product List | Glossary On
Versions: 1 2 3 4 5 6 7 8 9 10 11 12 13 14 15 16 17 18 19 20 21 22 23 24 25 26 27 28 29 30 31 32 33 34
000
FTUS43 KABR 291200 CCA
TAFPIR
TAF COR
KPIR 291209Z 2912/3012 VRB03KT 3SM BR OVC003
      TEMPO 2912/2914 1SM BR OVC002
     FM291500 VRB03KT P6SM BKN080
     FM291800 35011KT P6SM VCSH BKN050
     FM292200 01010KT P6SM BKN200
     FM300000 03005KT P6SM SKC=

USA.gov is the U.S. government's official web portal to all federal, state and local government web resources and services.